Terminal Aerodrome Forecast
Issued by NWS

Home | Current Version | Previous Version | Text Only | Print | Product List | Glossary Off
Versions: 1 2 3 4 5 6 7 8 9 10 11 12 13 14

070
FTUS43 KTOP 171405 AAA
TAFFOE
TAF AMD
KFOE 171405Z 1714/1812 10014G21KT P6SM SCT200
     FM172200 13012G20KT P6SM SCT035
     FM180500 16014KT P6SM SCT045 WS020/19040KT
     FM180900 28018G26KT P6SM BKN018=

USA.gov is the U.S. government's official web portal to all federal, state and local government web resources and services.